Time;durP1;ratioP1;P1;durP2;ratioP2;P2;SDS_P1;SDS_P2;PMS_P1;PMS_P2;Temp;Humidity;BMP_temperature;BMP_pressure;BME280_temperature;BME280_humidity;BME280_pressure;Samples;Min_cycle;Max_cycle;Signal;HPM_P1;HPM_P2
2023/07/11 00:01:39;;;;;;;5.28;3.40;;;;;;;21.25;69.69;99932.50;12212290;19;20010;-82
2023/07/11 00:05:41;;;;;;;5.97;3.30;;;;;;;21.22;70.04;99930.34;12234592;19;20011;-80
2023/07/11 00:09:46;;;;;;;5.80;3.40;;;;;;;21.22;69.71;99938.75;12232198;19;20417;-81
2023/07/11 00:13:49;;;;;;;6.85;3.10;;;;;;;21.21;70.14;99933.44;12212139;19;20078;-83
2023/07/11 00:17:52;;;;;;;5.50;3.13;;;;;;;21.15;70.81;99935.56;12230894;19;20771;-82
2023/07/11 00:21:54;;;;;;;5.90;3.65;;;;;;;21.11;71.18;99937.34;12230131;19;20033;-83
2023/07/11 00:25:56;;;;;;;5.15;3.20;;;;;;;21.05;71.39;99938.59;12207573;19;20041;-82
2023/07/11 00:29:58;;;;;;;5.55;4.07;;;;;;;20.98;72.11;99943.84;12230064;19;20087;-82
2023/07/11 00:34:01;;;;;;;7.07;3.50;;;;;;;20.90;73.42;99940.63;12226920;19;20002;-82
2023/07/11 00:38:04;;;;;;;7.13;3.35;;;;;;;20.88;74.01;99945.72;12207423;19;20031;-83
2023/07/11 00:42:08;;;;;;;8.23;3.80;;;;;;;20.81;74.81;99931.31;12231080;19;20018;-81
2023/07/11 00:46:16;;;;;;;7.63;4.35;;;;;;;20.76;75.36;99939.81;12207294;19;20671;-81
2023/07/11 00:50:21;;;;;;;7.85;3.17;;;;;;;20.70;75.22;99941.94;12228137;19;20007;-82
2023/07/11 00:54:31;;;;;;;4.78;3.35;;;;;;;20.65;76.13;99949.63;12226594;19;20010;-81
2023/07/11 00:58:35;;;;;;;6.05;3.40;;;;;;;20.57;75.95;99944.75;12204978;19;20007;-81
2023/07/11 01:02:37;;;;;;;6.85;3.75;;;;;;;20.49;76.88;99938.72;12226112;19;20355;-80
2023/07/11 01:06:39;;;;;;;11.50;3.90;;;;;;;20.42;77.22;99948.66;12230417;19;20006;-82
2023/07/11 01:10:40;;;;;;;6.10;4.13;;;;;;;20.37;76.94;99945.97;12204733;19;20014;-82
2023/07/11 01:14:45;;;;;;;5.82;3.58;;;;;;;20.31;76.61;99941.63;12220866;19;20006;-82
2023/07/11 01:18:47;;;;;;;10.63;3.80;;;;;;;20.24;75.86;99937.28;12226097;19;20003;-83
2023/07/11 01:22:51;;;;;;;8.23;4.30;;;;;;;20.20;75.58;99941.03;12202770;19;20010;-81
2023/07/11 01:26:56;;;;;;;5.13;3.25;;;;;;;20.16;75.52;99929.59;12227012;19;20210;-82
2023/07/11 01:30:58;;;;;;;5.40;3.38;;;;;;;20.11;75.66;99926.06;12228257;19;20010;-81
2023/07/11 01:35:01;;;;;;;6.90;4.13;;;;;;;20.06;74.97;99927.03;12206618;19;20014;-82
2023/07/11 01:39:06;;;;;;;8.40;4.03;;;;;;;20.00;75.13;99920.69;12225754;19;20490;-81
2023/07/11 01:43:08;;;;;;;6.82;3.53;;;;;;;19.96;75.59;99916.88;12202083;19;20011;-83
2023/07/11 01:47:10;;;;;;;7.63;3.30;;;;;;;19.95;75.70;99915.19;12221392;19;20007;-82
2023/07/11 01:51:12;;;;;;;6.77;3.80;;;;;;;19.96;75.46;99914.06;12226308;19;20014;-81
2023/07/11 01:55:14;;;;;;;6.13;4.00;;;;;;;19.94;76.03;99907.94;12204195;19;20267;-82
2023/07/11 01:59:15;;;;;;;5.80;4.03;;;;;;;19.90;75.92;99903.28;12228466;19;20091;-81
2023/07/11 02:03:18;;;;;;;;;;;;;;;19.86;76.52;99903.06;12230401;19;20030;-82
2023/07/11 02:07:20;;;;;;;7.97;3.50;;;;;;;19.85;76.54;99897.81;12204864;19;19915;-82
2023/07/11 02:11:22;;;;;;;7.43;3.47;;;;;;;19.80;76.63;99893.94;12228483;19;20018;-82
2023/07/11 02:15:24;;;;;;;6.25;3.08;;;;;;;19.77;77.30;99888.97;12228813;19;20010;-82
2023/07/11 02:19:26;;;;;;;7.18;4.00;;;;;;;19.73;77.08;99887.13;12205964;19;20092;-83
2023/07/11 02:23:27;;;;;;;5.38;3.45;;;;;;;19.70;77.31;99893.34;12226973;19;20519;-83
2023/07/11 02:27:29;;;;;;;7.40;4.13;;;;;;;19.64;77.36;99886.16;12224778;19;20015;-82
2023/07/11 02:31:33;;;;;;;6.47;3.70;;;;;;;19.55;78.21;99886.84;12198418;19;20017;-82
2023/07/11 02:35:35;;;;;;;7.03;3.70;;;;;;;19.48;78.20;99885.59;12233090;19;19998;-82
2023/07/11 02:39:37;;;;;;;8.90;3.03;;;;;;;19.39;78.76;99881.84;12234962;19;20005;-83
2023/07/11 02:43:38;;;;;;;6.70;3.50;;;;;;;19.32;79.34;99883.06;12215857;19;20011;-83
2023/07/11 02:47:40;;;;;;;8.00;3.60;;;;;;;19.27;80.17;99880.34;12238839;19;20002;-83
2023/07/11 02:51:42;;;;;;;9.27;4.18;;;;;;;19.23;79.78;99884.91;12239295;19;20014;-82
2023/07/11 02:55:44;;;;;;;9.25;3.92;;;;;;;19.16;80.86;99889.25;12211970;19;20014;-83
2023/07/11 02:59:46;;;;;;;6.67;3.40;;;;;;;19.11;81.62;99874.22;12237265;19;20016;-82
2023/07/11 03:03:48;;;;;;;6.70;3.67;;;;;;;19.10;82.28;99877.34;12234319;19;20003;-83
2023/07/11 03:07:50;;;;;;;6.72;3.38;;;;;;;19.10;82.26;99875.38;12213315;19;20022;-83
2023/07/11 03:11:52;;;;;;;6.03;3.60;;;;;;;19.12;82.46;99883.41;12234198;19;20011;-82
2023/07/11 03:15:54;;;;;;;5.25;3.15;;;;;;;19.09;82.61;99868.09;12220349;19;20014;-83
2023/07/11 03:19:56;;;;;;;9.23;3.87;;;;;;;19.10;82.58;99866.97;12213735;19;20434;-83
2023/07/11 03:23:58;;;;;;;7.57;3.67;;;;;;;19.09;83.17;99870.06;12233327;19;20015;-83
2023/07/11 03:27:59;;;;;;;8.25;4.35;;;;;;;19.11;82.57;99862.22;12234208;19;20014;-83
2023/07/11 03:32:02;;;;;;;7.88;4.30;;;;;;;19.12;82.32;99861.91;12219819;19;20044;-82
2023/07/11 03:36:04;;;;;;;6.47;3.38;;;;;;;19.15;82.25;99848.47;12228838;19;20015;-83
2023/07/11 03:40:08;;;;;;;7.32;3.83;;;;;;;19.16;82.58;99850.16;12218606;19;20018;-83
2023/07/11 03:44:10;;;;;;;6.47;3.53;;;;;;;19.17;82.41;99851.78;12230478;19;20010;-83
2023/07/11 03:48:14;;;;;;;7.80;4.20;;;;;;;19.15;82.33;99840.91;12236072;19;20022;-83
2023/07/11 03:52:15;;;;;;;8.88;3.85;;;;;;;19.16;82.36;99839.78;12211127;19;20508;-81
2023/07/11 03:56:18;;;;;;;6.32;3.97;;;;;;;19.17;82.30;99832.25;12222779;19;20002;-82
2023/07/11 04:00:19;;;;;;;9.93;3.40;;;;;;;19.20;82.82;99845.59;12225767;19;20075;-82
2023/07/11 04:04:23;;;;;;;7.90;4.00;;;;;;;19.19;82.59;99833.59;12203276;19;20025;-82
2023/07/11 04:08:24;;;;;;;7.30;3.58;;;;;;;19.22;82.67;99832.16;12225477;19;20014;-84
2023/07/11 04:12:26;;;;;;;8.25;4.13;;;;;;;19.24;82.52;99835.44;12233071;19;20010;-83
2023/07/11 04:16:28;;;;;;;6.07;4.00;;;;;;;19.26;82.79;99824.81;12199985;19;20046;-85
2023/07/11 04:20:30;;;;;;;8.35;4.43;;;;;;;19.27;83.24;99832.03;12223589;19;20676;-82
2023/07/11 04:24:32;;;;;;;10.43;4.63;;;;;;;19.22;83.46;99835.78;12221350;19;20050;-82
2023/07/11 04:28:34;;;;;;;6.53;4.32;;;;;;;19.20;83.45;99831.63;12200320;19;20018;-83
2023/07/11 04:32:35;;;;;;;6.97;4.10;;;;;;;19.20;83.62;99842.81;12224507;19;20094;-83
2023/07/11 04:36:37;;;;;;;9.88;3.95;;;;;;;19.18;84.60;99836.69;12225221;19;20018;-82
2023/07/11 04:40:39;;;;;;;6.13;3.53;;;;;;;19.17;85.61;99847.03;12205911;19;20010;-83
2023/07/11 04:44:41;;;;;;;7.05;4.07;;;;;;;19.12;86.74;99842.34;12268196;19;20007;-81
2023/07/11 04:48:45;;;;;;;6.33;3.53;;;;;;;19.15;87.26;99837.28;12240250;19;20010;-81
2023/07/11 04:52:47;;;;;;;7.40;3.83;;;;;;;19.21;87.86;99836.88;12209814;19;20018;-81
2023/07/11 04:56:59;;;;;;;7.28;3.95;;;;;;;19.26;87.93;99842.41;12227854;19;20011;-83
2023/07/11 05:01:13;;;;;;;6.38;4.00;;;;;;;19.32;88.15;99843.97;12222933;19;20039;-82
2023/07/11 05:05:15;;;;;;;7.35;3.90;;;;;;;19.40;88.53;99845.22;12194727;19;20347;-82
2023/07/11 05:09:17;;;;;;;7.33;3.80;;;;;;;19.49;87.90;99837.78;12213949;19;20610;-82
2023/07/11 05:13:19;;;;;;;6.10;3.50;;;;;;;19.62;87.49;99840.91;12202298;19;20080;-83
2023/07/11 05:17:21;;;;;;;9.03;3.90;;;;;;;19.71;87.26;99842.69;12219323;19;20007;-84
2023/07/11 05:21:23;;;;;;;5.82;3.70;;;;;;;19.82;87.62;99828.53;12220481;19;20049;-82
2023/07/11 05:25:25;;;;;;;7.80;3.97;;;;;;;19.92;86.95;99834.72;12196520;19;20014;-82
2023/07/11 05:29:26;;;;;;;12.95;5.15;;;;;;;20.03;88.79;99824.16;12218770;19;20469;-83
2023/07/11 05:33:30;;;;;;;6.75;3.97;;;;;;;20.12;90.52;99824.25;12219902;19;20010;-82
2023/07/11 05:37:32;;;;;;;10.57;4.13;;;;;;;20.20;90.85;99821.53;12196772;19;20011;-84
2023/07/11 05:41:36;;;;;;;6.63;5.20;;;;;;;20.28;92.22;99817.16;12220108;19;20300;-83
2023/07/11 05:45:37;;;;;;;9.00;4.30;;;;;;;20.37;91.39;99814.44;12218821;19;20010;-82
2023/07/11 05:49:39;;;;;;;6.68;4.45;;;;;;;20.47;90.46;99811.41;12196859;19;20066;-82
2023/07/11 05:53:41;;;;;;;6.83;4.17;;;;;;;20.57;89.87;99810.38;12218364;19;20093;-82
2023/07/11 05:57:43;;;;;;;8.00;4.22;;;;;;;20.66;89.58;99805.66;12215543;19;20523;-82
2023/07/11 06:01:45;;;;;;;6.47;4.30;;;;;;;20.76;87.79;99799.81;12191865;19;20010;-82
2023/07/11 06:05:48;;;;;;;7.25;4.10;;;;;;;20.88;87.32;99802.88;12213052;19;20069;-83
2023/07/11 06:09:49;;;;;;;9.85;4.03;;;;;;;21.01;85.49;99792.75;12211194;19;20014;-83
2023/07/11 06:13:51;;;;;;;6.40;4.93;;;;;;;21.19;84.67;99792.84;12177198;19;20402;-80
2023/07/11 06:17:54;;;;;;;10.65;4.40;;;;;;;21.34;81.91;99787.66;12217029;19;20042;-80
2023/07/11 06:21:56;;;;;;;7.20;4.37;;;;;;;21.55;79.56;99779.53;12211893;19;20014;-80
2023/07/11 06:25:58;;;;;;;5.77;4.30;;;;;;;21.77;77.84;99780.59;12195941;19;20464;-80
2023/07/11 06:30:00;;;;;;;;;;;;;;;21.98;76.01;99778.84;12215733;19;20010;-81
2023/07/11 06:34:02;;;;;;;9.03;4.20;;;;;;;22.24;74.63;99781.69;12215338;19;19907;-80
2023/07/11 06:38:04;;;;;;;8.05;4.35;;;;;;;22.47;73.26;99770.34;12185587;19;20432;-81
2023/07/11 06:42:07;;;;;;;8.88;3.80;;;;;;;22.70;71.26;99774.63;12209460;19;20465;-78
2023/07/11 06:46:10;;;;;;;7.18;4.15;;;;;;;22.97;69.16;99767.84;12178542;19;20010;-77
2023/07/11 06:50:11;;;;;;;7.18;3.88;;;;;;;23.19;68.13;99763.13;12210942;19;20361;-78
2023/07/11 06:54:14;;;;;;;7.65;4.47;;;;;;;23.40;66.30;99768.84;12214497;19;20348;-78
2023/07/11 06:58:17;;;;;;;9.13;4.23;;;;;;;23.62;65.04;99754.53;12193464;19;20035;-78
2023/07/11 07:02:19;;;;;;;7.55;3.97;;;;;;;23.86;62.53;99755.94;12213690;19;20010;-78
2023/07/11 07:06:22;;;;;;;7.93;4.43;;;;;;;24.10;60.88;99758.09;12210184;19;20015;-79
2023/07/11 07:10:24;;;;;;;11.18;4.28;;;;;;;24.34;59.84;99749.78;12187763;19;20022;-79
2023/07/11 07:14:26;;;;;;;7.93;4.60;;;;;;;24.61;58.34;99752.41;12212513;19;20025;-79
2023/07/11 07:18:34;;;;;;;7.70;4.73;;;;;;;24.76;57.23;99746.94;12207183;19;20097;-79
2023/07/11 07:22:36;;;;;;;8.65;4.38;;;;;;;24.94;56.33;99746.78;12194593;19;20283;-78
2023/07/11 07:26:41;;;;;;;9.27;4.40;;;;;;;25.19;55.48;99745.72;12222574;19;20017;-78
2023/07/11 07:30:51;;;;;;;7.85;4.50;;;;;;;25.52;53.86;99743.97;12223733;19;20007;-78
2023/07/11 07:34:53;;;;;;;7.30;4.68;;;;;;;25.85;52.73;99741.06;12198646;19;20007;-79
2023/07/11 07:38:55;;;;;;;6.32;4.13;;;;;;;26.16;51.44;99734.78;12220701;19;20006;-79
2023/07/11 07:42:58;;;;;;;7.63;4.78;;;;;;;26.45;50.14;99730.81;12223500;19;20011;-79
2023/07/11 07:47:00;;;;;;;9.55;4.75;;;;;;;26.73;49.51;99727.19;12200217;19;20477;-79
2023/07/11 07:51:11;;;;;;;7.57;4.28;;;;;;;27.02;48.49;99718.31;12221930;19;20010;-78
2023/07/11 07:55:14;;;;;;;8.05;5.28;;;;;;;27.38;48.29;99715.63;12205412;19;20010;-78
2023/07/11 07:59:17;;;;;;;6.50;4.28;;;;;;;27.70;46.62;99710.75;12224112;19;20011;-78
2023/07/11 08:03:18;;;;;;;7.25;4.40;;;;;;;27.94;45.76;99702.06;12221336;19;20038;-79
2023/07/11 08:07:20;;;;;;;7.20;4.18;;;;;;;28.26;45.79;99690.63;12200728;19;20058;-79
2023/07/11 08:11:23;;;;;;;7.55;4.85;;;;;;;28.56;44.11;99690.88;12218450;19;20023;-79
2023/07/11 08:15:24;;;;;;;9.30;4.63;;;;;;;28.76;43.16;99677.47;12219695;19;20086;-79
2023/07/11 08:19:26;;;;;;;7.22;4.50;;;;;;;28.99;42.24;99674.66;12196225;19;20019;-79
2023/07/11 08:23:28;;;;;;;6.97;4.50;;;;;;;29.27;41.14;99676.38;12232101;19;20007;-78
2023/07/11 08:27:30;;;;;;;8.27;4.90;;;;;;;29.40;40.28;99669.31;12249787;19;20007;-79
2023/07/11 08:31:32;;;;;;;7.43;4.65;;;;;;;29.68;40.44;99666.13;12198944;19;20022;-78
2023/07/11 08:35:34;;;;;;;;;;;;;;;29.79;40.11;99649.28;12218765;19;20018;-79
2023/07/11 08:39:36;;;;;;;7.10;4.73;;;;;;;29.95;40.22;99651.91;12218889;19;20526;-79
2023/07/11 08:43:39;;;;;;;7.78;4.68;;;;;;;30.10;39.76;99650.09;12194787;19;20639;-79
2023/07/11 08:47:52;;;;;;;8.38;5.15;;;;;;;30.35;39.46;99651.25;12220177;19;20006;-79
2023/07/11 08:51:59;;;;;;;8.32;5.10;;;;;;;30.59;39.40;99640.56;12220071;19;20027;-78
2023/07/11 08:56:17;;;;;;;7.60;4.97;;;;;;;30.80;38.51;99640.81;12199524;19;20378;-78
2023/07/11 09:00:19;;;;;;;7.85;5.20;;;;;;;30.99;37.85;99641.81;12219884;19;20007;-79
2023/07/11 09:04:23;;;;;;;8.77;4.63;;;;;;;31.16;37.46;99637.50;12197631;19;20010;-79
2023/07/11 09:08:25;;;;;;;7.18;5.25;;;;;;;31.29;37.59;99635.97;12217725;19;20641;-79
2023/07/11 09:13:08;;;;;;;6.70;5.15;;;;;;;31.58;36.92;99625.63;12221571;19;20007;-78
2023/07/11 09:17:43;;;;;;;10.05;5.15;;;;;;;31.87;36.61;99628.69;12194980;19;20043;-78
2023/07/11 09:22:13;;;;;;;7.50;5.22;;;;;;;31.97;36.59;99617.34;12210057;19;20002;-78
2023/07/11 09:26:25;;;;;;;9.30;5.00;;;;;;;32.29;36.43;99608.13;12192905;19;20018;-78
2023/07/11 09:30:36;;;;;;;11.90;4.97;;;;;;;32.43;35.27;99616.72;12214929;19;20026;-78
2023/07/11 09:34:44;;;;;;;7.15;5.40;;;;;;;32.53;35.50;99600.06;12190819;19;20077;-78
2023/07/11 09:38:57;;;;;;;7.00;4.93;;;;;;;32.70;35.24;99596.44;12209895;19;20028;-79
2023/07/11 09:43:02;;;;;;;7.28;5.05;;;;;;;32.83;34.97;99599.72;12214675;19;20031;-79
2023/07/11 09:47:15;;;;;;;6.72;5.00;;;;;;;32.82;34.65;99595.25;12198931;19;20013;-78
2023/07/11 09:51:31;;;;;;;9.10;4.97;;;;;;;32.89;34.40;99598.09;12211012;19;20003;-78
2023/07/11 09:55:36;;;;;;;9.48;5.45;;;;;;;32.95;34.91;99593.59;12190340;19;20066;-78
2023/07/11 09:59:43;;;;;;;8.88;5.03;;;;;;;33.24;33.94;99587.94;12211319;19;20363;-79
2023/07/11 10:03:47;;;;;;;8.90;5.50;;;;;;;33.48;33.68;99592.78;12212099;19;20109;-78
2023/07/11 10:08:03;;;;;;;9.25;5.70;;;;;;;33.54;34.03;99576.09;12190731;19;20007;-78
2023/07/11 10:12:35;;;;;;;8.30;5.60;;;;;;;33.49;33.81;99567.91;12213852;19;20011;-78
2023/07/11 10:16:37;;;;;;;33.00;11.13;;;;;;;33.51;34.46;99560.56;12186445;19;20010;-77
2023/07/11 10:20:44;;;;;;;11.55;6.50;;;;;;;33.50;34.08;99560.97;12213130;19;20015;-79
2023/07/11 10:24:48;;;;;;;7.20;5.53;;;;;;;33.78;34.31;99555.19;12202989;19;20865;-78
2023/07/11 10:29:14;;;;;;;9.88;5.55;;;;;;;34.06;33.60;99553.50;12187948;19;20010;-79
2023/07/11 10:33:33;;;;;;;9.95;5.90;;;;;;;33.95;33.56;99544.91;12214014;19;20070;-79
2023/07/11 10:38:00;;;;;;;16.13;5.43;;;;;;;34.09;33.69;99543.25;12188645;19;20006;-78
2023/07/11 10:42:09;;;;;;;8.40;6.05;;;;;;;34.21;33.78;99539.94;12213878;19;20006;-78
2023/07/11 10:46:45;;;;;;;10.88;6.38;;;;;;;34.47;33.71;99536.47;12178478;19;20032;-77
2023/07/11 10:50:57;;;;;;;10.75;5.85;;;;;;;34.49;33.59;99528.28;12212884;19;20010;-79
2023/07/11 10:55:16;;;;;;;9.23;6.05;;;;;;;34.74;33.13;99527.31;12213268;19;20002;-78
2023/07/11 10:59:22;;;;;;;9.45;6.30;;;;;;;35.03;32.64;99515.63;12203021;19;20014;-79
2023/07/11 11:03:43;;;;;;;10.18;6.30;;;;;;;35.22;31.64;99503.63;12223573;19;20034;-79
2023/07/11 11:07:54;;;;;;;7.30;6.45;;;;;;;35.29;32.06;99502.72;12203407;19;20405;-78
2023/07/11 11:12:28;;;;;;;8.27;6.57;;;;;;;35.57;32.01;99496.69;12223427;19;20010;-79
2023/07/11 11:17:09;;;;;;;10.65;7.05;;;;;;;35.59;31.71;99493.41;12198001;19;20084;-79
2023/07/11 11:21:13;;;;;;;8.95;7.13;;;;;;;35.61;31.89;99470.88;12218013;19;20461;-78
2023/07/11 11:25:29;;;;;;;7.50;6.45;;;;;;;35.53;32.63;99458.63;12193202;19;20019;-78
2023/07/11 11:29:58;;;;;;;8.05;7.25;;;;;;;35.73;31.22;99467.44;12221396;19;20019;-79
2023/07/11 11:34:36;;;;;;;9.67;7.43;;;;;;;35.60;32.24;99455.69;12223815;19;20657;-79
2023/07/11 11:38:54;;;;;;;10.25;7.20;;;;;;;35.83;32.08;99455.00;12116347;19;2004749;-78
2023/07/11 11:43:03;;;;;;;10.63;7.00;;;;;;;36.00;32.30;99455.19;12223211;19;20018;-78
2023/07/11 11:47:20;;;;;;;11.68;7.32;;;;;;;36.24;31.64;99445.41;12198899;19;20010;-79
2023/07/11 11:51:44;;;;;;;10.55;6.85;;;;;;;36.47;31.22;99436.03;12215256;19;20037;-79
2023/07/11 11:55:56;;;;;;;9.00;7.32;;;;;;;36.64;30.22;99430.44;12197944;19;20771;-78
2023/07/11 12:00:35;;;;;;;9.02;7.25;;;;;;;36.98;30.33;99424.50;12219802;19;20425;-78
2023/07/11 12:05:00;;;;;;;10.15;7.97;;;;;;;37.03;30.31;99426.88;12193443;19;20035;-78
2023/07/11 12:09:33;;;;;;;9.18;7.45;;;;;;;37.13;30.13;99425.88;12213343;19;20018;-78
2023/07/11 12:13:38;;;;;;;9.23;6.78;;;;;;;37.29;29.70;99415.72;12190252;19;20504;-78
2023/07/11 12:17:44;;;;;;;9.60;6.65;;;;;;;37.52;29.47;99404.16;12207593;19;20007;-78
2023/07/11 12:21:57;;;;;;;9.25;7.35;;;;;;;37.95;29.12;99388.84;12220683;19;20002;-78
2023/07/11 12:26:21;;;;;;;11.88;7.68;;;;;;;38.47;27.72;99388.00;12186818;19;20014;-77
2023/07/11 12:30:40;;;;;;;15.38;7.80;;;;;;;39.36;26.95;99381.09;12221969;19;20353;-78
2023/07/11 12:34:42;;;;;;;10.80;7.95;;;;;;;39.59;26.41;99372.13;12199289;19;20010;-79
2023/07/11 12:38:55;;;;;;;9.63;7.63;;;;;;;40.49;25.57;99369.25;12215495;19;20015;-79
2023/07/11 12:43:01;;;;;;;9.25;7.60;;;;;;;41.43;24.82;99365.41;12219840;19;20014;-80
2023/07/11 12:47:11;;;;;;;9.77;6.75;;;;;;;42.02;24.22;99356.13;12196211;19;20007;-80
2023/07/11 12:51:25;;;;;;;8.88;7.03;;;;;;;42.48;23.46;99354.19;12215177;19;20369;-79
2023/07/11 12:55:28;;;;;;;10.90;7.70;;;;;;;43.17;22.41;99355.69;12197371;19;20024;-81
2023/07/11 12:59:31;;;;;;;8.07;7.28;;;;;;;43.69;21.72;99347.84;12219132;19;20015;-80
2023/07/11 13:03:36;;;;;;;10.57;7.60;;;;;;;43.90;21.45;99343.09;12217277;19;20472;-79
2023/07/11 13:07:38;;;;;;;10.52;6.75;;;;;;;44.04;21.42;99335.81;12196734;19;20720;-79
2023/07/11 13:11:40;;;;;;;11.30;7.15;;;;;;;44.20;20.87;99327.97;12218605;19;20038;-78
2023/07/11 13:15:43;;;;;;;8.63;7.75;;;;;;;44.46;20.93;99317.50;12212495;19;20006;-79
2023/07/11 13:19:46;;;;;;;7.32;6.55;;;;;;;43.84;21.06;99309.44;12192112;19;20023;-79
2023/07/11 13:23:48;;;;;;;14.43;8.07;;;;;;;43.68;21.53;99294.03;12213302;19;20011;-79
2023/07/11 13:27:51;;;;;;;7.55;6.68;;;;;;;44.41;20.94;99286.22;12207508;19;20010;-79
2023/07/11 13:32:04;;;;;;;8.40;6.65;;;;;;;45.18;20.35;99294.13;12192097;19;20014;-79
2023/07/11 13:36:19;;;;;;;9.63;7.20;;;;;;;45.61;19.76;99274.25;12214381;19;20544;-79
2023/07/11 13:40:39;;;;;;;11.32;7.65;;;;;;;46.23;19.02;99272.28;12192589;19;20401;-79
2023/07/11 13:44:47;;;;;;;7.93;7.13;;;;;;;46.51;18.44;99263.13;12215794;19;20074;-80
2023/07/11 13:48:50;;;;;;;;;;;;;;;46.23;18.88;99269.38;12219292;19;20031;-81
2023/07/11 13:52:55;;;;;;;14.95;7.00;;;;;;;46.40;18.42;99257.16;12194058;19;20389;-80
2023/07/11 13:56:57;;;;;;;10.48;7.07;;;;;;;46.54;18.40;99251.25;12212479;19;20487;-80
2023/07/11 14:00:59;;;;;;;8.77;6.85;;;;;;;46.75;18.40;99249.13;12214788;19;20347;-80
2023/07/11 14:05:03;;;;;;;8.48;7.15;;;;;;;47.28;17.53;99246.22;12194445;19;20014;-80
2023/07/11 14:09:06;;;;;;;8.82;6.70;;;;;;;46.48;18.55;99235.81;12213305;19;20014;-80
2023/07/11 14:13:23;;;;;;;7.47;6.78;;;;;;;46.90;18.54;99222.75;12199811;19;20003;-79
2023/07/11 14:17:25;;;;;;;10.55;6.68;;;;;;;47.47;17.97;99229.94;12222283;19;20409;-81
2023/07/11 14:21:29;;;;;;;12.02;7.43;;;;;;;47.73;17.74;99226.94;12218445;19;20008;-80
2023/07/11 14:25:32;;;;;;;7.82;7.03;;;;;;;48.18;17.54;99224.28;12198340;19;20497;-80
2023/07/11 14:29:35;;;;;;;9.07;7.30;;;;;;;48.56;16.97;99219.94;12221078;19;20010;-81
2023/07/11 14:33:37;;;;;;;7.63;6.93;;;;;;;49.20;16.78;99216.59;12223462;19;20038;-80
2023/07/11 14:37:39;;;;;;;9.32;7.13;;;;;;;49.68;16.48;99216.34;12194872;19;20540;-80
2023/07/11 14:41:42;;;;;;;10.25;7.03;;;;;;;50.10;15.71;99217.28;12217710;19;20077;-81
2023/07/11 14:45:50;;;;;;;8.02;7.22;;;;;;;50.57;15.59;99211.50;12220476;19;20789;-80
2023/07/11 14:49:52;;;;;;;8.18;7.05;;;;;;;50.06;15.77;99213.03;12199726;19;20006;-80
2023/07/11 14:53:54;;;;;;;9.30;7.25;;;;;;;48.78;16.43;99204.56;12220347;19;20015;-81
2023/07/11 14:57:59;;;;;;;10.88;7.20;;;;;;;48.50;16.94;99203.72;12220966;19;20022;-80
2023/07/11 15:02:17;;;;;;;10.13;7.28;;;;;;;48.14;17.14;99197.47;12203621;19;20076;-80
2023/07/11 15:06:19;;;;;;;11.38;6.97;;;;;;;46.40;18.37;99193.06;12222189;19;20022;-79
2023/07/11 15:10:24;;;;;;;11.73;6.95;;;;;;;45.58;18.58;99205.44;12209743;19;20007;-80
2023/07/11 15:14:27;;;;;;;12.63;7.03;;;;;;;45.72;18.58;99194.25;12228959;19;20034;-80
2023/07/11 15:18:32;;;;;;;7.32;6.53;;;;;;;44.00;19.42;99198.75;12225514;19;20022;-79
2023/07/11 15:22:34;;;;;;;9.57;6.95;;;;;;;43.81;19.77;99186.44;12213076;19;20017;-79
2023/07/11 15:26:36;;;;;;;9.20;6.70;;;;;;;44.14;19.61;99177.66;12225947;19;20019;-79
2023/07/11 15:30:41;;;;;;;7.10;6.40;;;;;;;43.00;20.84;99166.81;12222868;19;20022;-80
2023/07/11 15:34:43;;;;;;;9.52;7.10;;;;;;;41.49;21.86;99169.00;12199508;19;20014;-80
2023/07/11 15:38:45;;;;;;;8.80;6.65;;;;;;;40.43;23.55;99166.16;12224007;19;20023;-79
2023/07/11 15:42:49;;;;;;;9.55;6.35;;;;;;;39.61;23.65;99162.00;12231520;19;20104;-79
2023/07/11 15:46:51;;;;;;;9.50;6.80;;;;;;;39.10;23.86;99158.31;12213260;19;20341;-80
2023/07/11 15:50:53;;;;;;;8.70;6.50;;;;;;;38.68;24.49;99167.00;12237834;19;20022;-79
2023/07/11 15:54:55;;;;;;;7.47;6.35;;;;;;;38.33;25.07;99165.97;12241216;19;20007;-80
2023/07/11 15:58:57;;;;;;;8.80;6.60;;;;;;;38.02;24.50;99161.47;12209108;19;20111;-80
2023/07/11 16:02:59;;;;;;;8.52;6.63;;;;;;;37.86;24.93;99162.25;12228532;19;20010;-79
2023/07/11 16:07:01;;;;;;;8.57;6.10;;;;;;;37.53;24.87;99163.56;12233980;19;20014;-80
2023/07/11 16:11:04;;;;;;;9.60;5.43;;;;;;;37.16;23.58;99154.19;12206652;19;20007;-79
2023/07/11 16:15:10;;;;;;;7.40;5.45;;;;;;;37.00;23.83;99162.75;12234450;19;20003;-79
2023/07/11 16:19:29;;;;;;;6.55;5.40;;;;;;;36.72;24.79;99165.81;12211226;19;20023;-79
2023/07/11 16:23:30;;;;;;;10.20;6.43;;;;;;;36.49;25.11;99160.13;12234334;19;20570;-78
2023/07/11 16:27:34;;;;;;;9.65;5.82;;;;;;;36.17;25.02;99170.22;12235065;19;20013;-81
2023/07/11 16:31:36;;;;;;;7.78;5.78;;;;;;;35.85;25.69;99170.78;12238822;19;20021;-81
2023/07/11 16:35:38;;;;;;;8.85;5.93;;;;;;;35.47;26.23;99185.31;12250358;19;20372;-81
2023/07/11 16:39:41;;;;;;;9.48;5.80;;;;;;;35.07;26.46;99173.69;12236021;19;20010;-81
2023/07/11 16:43:43;;;;;;;8.93;5.90;;;;;;;34.77;26.99;99163.00;12226449;19;20010;-80
2023/07/11 16:47:48;;;;;;;7.60;5.57;;;;;;;34.52;27.37;99171.91;12250134;19;20010;-81
2023/07/11 16:51:50;;;;;;;9.77;6.28;;;;;;;34.28;27.77;99164.47;12246836;19;20490;-81
2023/07/11 16:55:54;;;;;;;9.10;5.70;;;;;;;33.92;28.88;99162.78;12211780;19;20422;-82
2023/07/11 16:59:56;;;;;;;9.13;5.85;;;;;;;33.58;29.65;99148.38;12234668;19;20007;-81
2023/07/11 17:03:57;;;;;;;;;;;;;;;33.17;30.41;99162.56;12238629;19;20452;-81
2023/07/11 17:07:59;;;;;;;11.73;6.05;;;;;;;32.81;31.55;99165.63;12211405;19;19933;-81
2023/07/11 17:12:01;;;;;;;;;;;;;;;32.35;32.23;99161.72;12234640;19;20010;-82
2023/07/11 17:16:06;;;;;;;8.95;5.55;;;;;;;31.89;34.31;99164.66;12233271;19;19927;-80
2023/07/11 17:20:20;;;;;;;15.85;6.47;;;;;;;31.58;35.03;99144.38;12210233;19;20125;-83
2023/07/11 17:24:24;;;;;;;12.38;6.00;;;;;;;31.41;36.00;99145.19;12231027;19;20006;-83
2023/07/11 17:28:28;;;;;;;9.15;5.70;;;;;;;31.25;36.53;99123.63;12209032;19;20027;-82
2023/07/11 17:32:29;;;;;;;9.98;6.00;;;;;;;31.10;37.54;99113.44;12229364;19;20008;-81
2023/07/11 17:36:31;;;;;;;10.50;5.47;;;;;;;30.87;39.28;99059.78;12230281;19;20006;-83
2023/07/11 17:40:33;;;;;;;9.38;6.32;;;;;;;30.59;41.05;99009.34;12207653;19;20054;-84
2023/07/11 17:44:35;;;;;;;10.82;5.50;;;;;;;30.23;43.54;99017.81;12226843;19;20019;-84
2023/07/11 17:48:40;;;;;;;12.02;5.85;;;;;;;30.00;46.62;99018.09;12226326;19;20027;-81
2023/07/11 17:52:41;;;;;;;;;;;;;;;29.79;46.61;99024.50;12207819;19;20562;-83
2023/07/11 17:56:44;;;;;;;11.23;6.37;;;;;;;29.68;46.79;99057.72;12229604;19;19903;-83
2023/07/11 18:01:00;;;;;;;8.65;6.00;;;;;;;29.54;48.04;99086.81;12228004;19;20027;-82
2023/07/11 18:05:02;;;;;;;10.35;5.80;;;;;;;29.48;48.71;99040.94;12206299;19;20010;-82
2023/07/11 18:09:04;;;;;;;;;;;;;;;29.30;49.78;98975.56;12221199;19;20014;-83
2023/07/11 18:13:07;;;;;;;11.60;5.77;;;;;;;29.11;51.26;98949.50;12223504;19;19923;-83
2023/07/11 18:17:19;;;;;;;8.50;6.15;;;;;;;28.95;52.29;98959.09;12204992;19;20006;-81
2023/07/11 18:21:21;;;;;;;8.63;6.32;;;;;;;28.82;53.64;98960.63;12218981;19;20023;-84
2023/07/11 18:25:24;;;;;;;11.80;6.90;;;;;;;28.70;54.11;98980.75;12200683;19;20010;-82
2023/07/11 18:29:26;;;;;;;11.43;6.05;;;;;;;28.61;53.76;98970.56;12228666;19;20500;-81
2023/07/11 18:33:28;;;;;;;;;;;;;;;28.56;52.72;98970.13;12231797;19;20378;-82
2023/07/11 18:37:29;;;;;;;8.67;5.80;;;;;;;28.52;53.63;98953.06;12204419;19;20025;-84
2023/07/11 18:41:31;;;;;;;9.13;5.93;;;;;;;28.44;54.79;98948.56;12216942;19;20015;-83
2023/07/11 18:45:33;;;;;;;13.35;6.60;;;;;;;28.34;55.40;98958.56;12222850;19;20027;-83
2023/07/11 18:49:35;;;;;;;12.38;6.47;;;;;;;28.29;56.04;98972.25;12196369;19;20018;-82
2023/07/11 18:53:40;;;;;;;7.72;5.03;;;;;;;28.35;54.87;98968.69;12222795;19;20028;-82
2023/07/11 18:57:44;;;;;;;9.55;5.53;;;;;;;28.44;54.87;98940.06;12225132;19;20464;-82
2023/07/11 19:01:47;;;;;;;9.60;5.95;;;;;;;28.39;54.37;98923.41;12198813;19;20051;-83
2023/07/11 19:05:50;;;;;;;10.00;5.63;;;;;;;28.30;53.94;98889.72;12221295;19;20100;-82